Time;durP1;ratioP1;P1;durP2;ratioP2;P2;SDS_P1;SDS_P2;PMS_P1;PMS_P2;Temp;Humidity;BMP_temperature;BMP_pressure;BME280_temperature;BME280_humidity;BME280_pressure;Samples;Min_cycle;Max_cycle;Signal;HPM_P1;HPM_P2
2022/03/28 00:01:51;;;;;;;23.45;9.25;;;8.00;99.90;;;;;;5011727;28;20385;-53
2022/03/28 00:04:17;;;;;;;20.02;9.85;;;7.90;99.90;;;;;;5010927;28;20913;-53
2022/03/28 00:06:43;;;;;;;19.58;9.10;;;7.80;99.90;;;;;;4993424;28;20484;-53
2022/03/28 00:09:09;;;;;;;22.65;8.63;;;7.80;99.90;;;;;;4993317;28;20392;-52
2022/03/28 00:11:34;;;;;;;26.93;9.90;;;7.80;99.90;;;;;;5011144;28;20419;-53
2022/03/28 00:14:01;;;;;;;19.23;9.15;;;7.90;99.90;;;;;;5010577;28;20431;-52
2022/03/28 00:16:27;;;;;;;23.10;9.10;;;7.90;99.90;;;;;;5011191;28;20385;-53
2022/03/28 00:18:52;;;;;;;20.38;9.05;;;7.90;99.90;;;;;;5010932;28;20398;-53
2022/03/28 00:21:19;;;;;;;20.37;9.50;;;7.90;99.90;;;;;;5010785;28;20393;-53
2022/03/28 00:23:45;;;;;;;19.67;9.88;;;8.00;99.90;;;;;;4991482;28;20902;-53
2022/03/28 00:26:10;;;;;;;21.38;9.77;;;8.00;99.90;;;;;;4990956;28;20469;-53
2022/03/28 00:28:36;;;;;;;20.97;9.80;;;8.00;99.90;;;;;;4990299;28;20875;-53
2022/03/28 00:31:02;;;;;;;17.33;9.27;;;8.00;99.90;;;;;;4990785;28;20378;-52
2022/03/28 00:33:27;;;;;;;19.00;9.63;;;7.90;99.90;;;;;;4991422;28;20739;-53
2022/03/28 00:35:54;;;;;;;19.20;9.88;;;7.90;99.90;;;;;;4991379;28;20397;-53
2022/03/28 00:38:20;;;;;;;19.35;9.13;;;7.80;99.90;;;;;;4990743;28;20422;-53
2022/03/28 00:40:45;;;;;;;19.30;9.38;;;7.80;99.90;;;;;;4990868;28;20402;-53
2022/03/28 00:43:11;;;;;;;20.93;9.03;;;7.80;99.90;;;;;;4989826;28;20382;-52
2022/03/28 00:45:38;;;;;;;17.95;9.48;;;7.70;99.90;;;;;;4990969;28;20476;-53
2022/03/28 00:48:05;;;;;;;24.63;9.90;;;7.80;99.90;;;;;;4990011;28;20472;-52
2022/03/28 00:50:32;;;;;;;20.63;9.45;;;7.70;99.90;;;;;;4990488;28;20394;-52
2022/03/28 00:52:58;;;;;;;19.58;9.23;;;7.60;99.90;;;;;;4971366;28;20385;-52
2022/03/28 00:55:24;;;;;;;22.75;10.98;;;7.60;99.90;;;;;;4971158;28;20455;-53
2022/03/28 00:57:51;;;;;;;20.85;10.65;;;7.50;99.90;;;;;;4971511;28;20408;-53
2022/03/28 01:00:18;;;;;;;19.80;9.93;;;7.60;99.90;;;;;;4970819;28;20400;-53
2022/03/28 01:02:44;;;;;;;19.17;8.90;;;7.60;99.90;;;;;;4971519;28;20385;-52
2022/03/28 01:05:10;;;;;;;17.77;9.20;;;7.60;99.90;;;;;;4970506;28;20532;-52
2022/03/28 01:07:38;;;;;;;20.23;9.93;;;7.60;99.90;;;;;;4971279;28;20392;-52
2022/03/28 01:10:05;;;;;;;19.05;9.32;;;7.40;99.90;;;;;;4970694;28;20810;-52
2022/03/28 01:12:32;;;;;;;21.08;9.85;;;7.20;99.90;;;;;;4971138;28;20471;-53
2022/03/28 01:14:59;;;;;;;22.25;9.90;;;7.10;99.90;;;;;;4970865;28;20520;-52
2022/03/28 01:20:10;;;;;;;19.92;9.60;;;7.10;99.90;;;;;;4989527;28;20445;-53
2022/03/28 01:22:36;;;;;;;19.90;9.73;;;7.20;99.90;;;;;;5000595;28;20521;-50
2022/03/28 01:25:05;;;;;;;20.15;8.93;;;7.30;99.90;;;;;;5009318;28;20385;-49
2022/03/28 01:27:31;;;;;;;20.30;9.70;;;7.30;99.90;;;;;;5010080;28;20385;-53
2022/03/28 01:29:57;;;;;;;18.35;9.00;;;7.40;99.90;;;;;;5009592;28;20389;-52
2022/03/28 01:32:22;;;;;;;19.73;9.55;;;7.30;99.90;;;;;;5009949;28;20500;-52
2022/03/28 01:34:48;;;;;;;20.75;9.38;;;7.30;99.90;;;;;;5010159;28;20399;-53
2022/03/28 01:37:14;;;;;;;28.97;10.50;;;7.30;99.90;;;;;;5009117;28;20416;-52
2022/03/28 01:39:39;;;;;;;23.10;9.45;;;7.20;99.90;;;;;;5010202;28;20392;-53
2022/03/28 01:42:05;;;;;;;17.70;8.70;;;7.30;99.90;;;;;;5008844;28;20469;-52
2022/03/28 01:44:32;;;;;;;22.88;9.63;;;7.30;99.90;;;;;;5010069;28;20396;-52
2022/03/28 01:46:58;;;;;;;18.40;9.20;;;7.20;99.90;;;;;;5009767;28;20389;-49
2022/03/28 01:49:23;;;;;;;20.08;9.20;;;7.20;99.90;;;;;;5009498;28;20443;-50
2022/03/28 01:51:50;;;;;;;17.27;8.80;;;7.20;99.90;;;;;;4992430;28;20782;-50
2022/03/28 01:54:16;;;;;;;18.93;9.20;;;7.20;99.90;;;;;;4979987;28;20406;-51
2022/03/28 01:56:42;;;;;;;19.85;9.35;;;7.20;99.90;;;;;;4989988;28;20425;-53
2022/03/28 01:59:09;;;;;;;19.20;8.88;;;7.10;99.90;;;;;;5005951;28;20869;-50
2022/03/28 02:01:36;;;;;;;18.43;9.83;;;7.00;99.90;;;;;;5009918;28;20380;-50
2022/03/28 02:04:02;;;;;;;19.00;9.20;;;7.00;99.90;;;;;;5008760;28;20388;-49
2022/03/28 02:06:28;;;;;;;23.23;10.90;;;6.90;99.90;;;;;;5009695;28;20866;-50
2022/03/28 02:08:54;;;;;;;24.48;10.00;;;6.90;99.90;;;;;;4992210;28;20758;-50
2022/03/28 02:11:20;;;;;;;19.65;9.50;;;6.80;99.90;;;;;;5009268;28;20396;-51
2022/03/28 02:13:46;;;;;;;21.42;9.80;;;6.80;99.90;;;;;;5009612;28;20376;-50
2022/03/28 02:16:12;;;;;;;19.70;9.38;;;6.70;99.90;;;;;;5004951;28;20386;-50
2022/03/28 02:18:40;;;;;;;22.17;10.30;;;6.70;1.00;;;;;;4972546;28;20422;-50
2022/03/28 02:21:06;;;;;;;22.80;9.38;;;6.60;1.00;;;;;;4989379;28;20417;-50
2022/03/28 02:23:32;;;;;;;20.02;9.40;;;6.50;1.00;;;;;;4989758;28;20888;-50
2022/03/28 02:25:58;;;;;;;20.27;8.73;;;6.50;1.00;;;;;;4996834;28;20400;-50
2022/03/28 02:28:24;;;;;;;24.70;10.30;;;6.50;1.00;;;;;;5009616;28;20396;-50
2022/03/28 02:30:50;;;;;;;20.65;9.40;;;6.40;1.00;;;;;;5013361;28;20373;-50
2022/03/28 02:33:16;;;;;;;17.95;8.50;;;6.40;99.90;;;;;;5012229;28;20385;-50
2022/03/28 02:35:42;;;;;;;23.95;9.70;;;6.40;99.90;;;;;;5013343;28;20416;-50
2022/03/28 02:38:08;;;;;;;21.57;8.80;;;6.30;1.00;;;;;;5012197;28;20428;-50
2022/03/28 02:40:34;;;;;;;19.63;9.20;;;6.30;1.00;;;;;;5012884;28;20790;-51
2022/03/28 02:43:02;;;;;;;20.30;9.48;;;6.30;1.00;;;;;;5012507;28;20921;-50
2022/03/28 02:45:30;;;;;;;19.60;9.73;;;6.40;1.00;;;;;;5013048;28;20485;-51
2022/03/28 02:47:56;;;;;;;23.80;9.80;;;6.60;1.00;;;;;;5012691;28;20447;-51
2022/03/28 02:50:22;;;;;;;21.30;9.43;;;6.70;1.00;;;;;;5012043;28;20874;-51
2022/03/28 02:52:54;;;;;;;20.15;8.77;;;6.40;99.90;;;;;;5012511;28;20393;-50
2022/03/28 02:55:20;;;;;;;20.02;9.40;;;6.70;99.90;;;;;;5011948;28;20377;-50
2022/03/28 02:57:45;;;;;;;21.52;9.63;;;6.70;99.90;;;;;;5012343;28;20413;-50
2022/03/28 03:00:11;;;;;;;21.70;9.73;;;6.70;99.90;;;;;;4994476;28;20393;-50
2022/03/28 03:02:41;;;;;;;22.17;9.30;;;6.80;99.90;;;;;;5002698;28;20921;-50
2022/03/28 03:05:09;;;;;;;20.17;9.95;;;6.80;99.90;;;;;;4994170;28;20768;-50
2022/03/28 03:07:35;;;;;;;25.48;9.75;;;6.70;99.90;;;;;;4992491;28;20710;-50
2022/03/28 03:10:01;;;;;;;20.63;9.93;;;6.60;99.90;;;;;;5003356;28;20407;-50
2022/03/28 03:12:27;;;;;;;24.10;10.70;;;6.70;99.90;;;;;;5012059;28;20381;-50
2022/03/28 03:14:52;;;;;;;20.65;9.80;;;6.70;1.00;;;;;;5012471;28;20487;-50
2022/03/28 03:17:19;;;;;;;24.70;10.80;;;6.70;99.90;;;;;;5011716;28;20419;-50
2022/03/28 03:19:45;;;;;;;20.50;10.50;;;6.50;99.90;;;;;;5012041;28;20542;-50
2022/03/28 03:22:14;;;;;;;22.20;10.38;;;6.30;1.00;;;;;;5003710;28;20407;-50
2022/03/28 03:24:40;;;;;;;22.73;10.00;;;6.10;1.00;;;;;;4992618;28;20390;-51
2022/03/28 03:27:06;;;;;;;20.58;10.65;;;6.10;1.00;;;;;;4991372;28;21178;-50
2022/03/28 03:29:32;;;;;;;21.50;10.20;;;6.10;1.00;;;;;;4996717;28;20385;-50
2022/03/28 03:31:58;;;;;;;21.02;9.80;;;6.20;1.00;;;;;;5012065;28;20393;-50
2022/03/28 03:34:24;;;;;;;23.93;10.87;;;6.30;1.00;;;;;;4993618;28;20400;-50
2022/03/28 03:36:49;;;;;;;23.93;11.30;;;6.40;1.00;;;;;;5011735;28;20878;-50
2022/03/28 03:39:15;;;;;;;25.10;10.15;;;6.40;1.00;;;;;;5011011;28;20393;-50
2022/03/28 03:41:41;;;;;;;22.27;10.57;;;6.40;1.00;;;;;;5004760;28;20427;-50
2022/03/28 03:44:06;;;;;;;21.38;10.20;;;6.30;1.00;;;;;;5009618;28;20412;-50
2022/03/28 03:46:32;;;;;;;23.08;10.90;;;6.30;1.00;;;;;;5002637;28;20832;-51
2022/03/28 03:48:58;;;;;;;27.42;10.85;;;6.30;1.00;;;;;;5003798;28;20731;-50
2022/03/28 03:51:25;;;;;;;23.70;10.63;;;6.30;1.00;;;;;;4995102;28;20394;-51
2022/03/28 03:53:50;;;;;;;21.83;10.45;;;6.30;1.00;;;;;;4992332;28;20386;-50
2022/03/28 03:56:17;;;;;;;20.90;10.05;;;6.40;1.00;;;;;;5009414;28;20384;-50
2022/03/28 03:58:42;;;;;;;22.15;10.25;;;6.40;1.00;;;;;;5011712;28;20479;-51
2022/03/28 04:01:08;;;;;;;23.50;11.57;;;6.40;1.00;;;;;;5006671;28;20385;-50
2022/03/28 04:03:35;;;;;;;27.17;11.02;;;6.50;1.00;;;;;;5011419;28;20426;-50
2022/03/28 04:06:01;;;;;;;23.30;11.10;;;6.40;1.00;;;;;;5011336;28;20384;-49
2022/03/28 04:08:27;;;;;;;22.55;10.18;;;6.30;1.00;;;;;;5011023;28;20384;-50
2022/03/28 04:10:53;;;;;;;23.20;11.27;;;6.40;1.00;;;;;;5011472;28;20385;-50
2022/03/28 04:13:19;;;;;;;21.63;11.30;;;6.40;1.00;;;;;;5010942;28;20381;-50
2022/03/28 04:15:45;;;;;;;24.20;11.32;;;6.40;1.00;;;;;;4999980;28;20401;-50
2022/03/28 04:18:10;;;;;;;24.07;10.57;;;6.30;1.00;;;;;;5009024;28;20420;-50
2022/03/28 04:20:38;;;;;;;21.63;10.82;;;6.20;1.00;;;;;;5011203;28;20453;-51
2022/03/28 04:23:05;;;;;;;20.48;10.23;;;6.20;1.00;;;;;;5010126;28;20537;-49
2022/03/28 04:25:31;;;;;;;26.20;10.60;;;6.20;1.00;;;;;;5010956;28;20384;-50
2022/03/28 04:27:57;;;;;;;23.63;10.33;;;6.20;1.00;;;;;;5011189;28;20411;-50
2022/03/28 04:30:23;;;;;;;22.83;10.30;;;6.10;1.00;;;;;;4992935;28;20403;-51
2022/03/28 04:32:49;;;;;;;24.60;11.52;;;6.00;1.00;;;;;;5004896;28;20411;-50
2022/03/28 04:35:15;;;;;;;18.67;9.90;;;6.10;1.00;;;;;;4989560;28;20390;-50
2022/03/28 04:37:42;;;;;;;20.17;10.60;;;6.10;1.00;;;;;;5008304;28;20413;-50
2022/03/28 04:40:11;;;;;;;21.48;10.60;;;6.10;1.00;;;;;;5010267;28;20403;-50
2022/03/28 04:42:37;;;;;;;22.58;9.82;;;6.10;1.00;;;;;;5011060;28;20381;-50
2022/03/28 04:45:04;;;;;;;19.90;10.43;;;6.10;1.00;;;;;;5010866;28;20459;-50
2022/03/28 04:47:30;;;;;;;23.63;10.50;;;6.20;1.00;;;;;;5009621;28;20432;-50
2022/03/28 04:49:56;;;;;;;24.33;10.32;;;6.20;1.00;;;;;;4997446;28;20868;-50
2022/03/28 04:52:22;;;;;;;21.38;10.48;;;6.20;1.00;;;;;;4993333;28;20432;-50
2022/03/28 04:54:47;;;;;;;26.40;10.85;;;6.20;1.00;;;;;;5007947;28;20418;-50
2022/03/28 04:57:13;;;;;;;24.60;11.40;;;6.20;1.00;;;;;;5007885;28;20890;-50
2022/03/28 04:59:40;;;;;;;20.85;10.68;;;6.10;1.00;;;;;;5010434;28;20894;-50
2022/03/28 05:02:06;;;;;;;20.90;10.38;;;6.10;1.00;;;;;;5009195;28;20431;-50
2022/03/28 05:04:32;;;;;;;21.43;10.33;;;6.20;1.00;;;;;;5009784;28;20420;-51
2022/03/28 05:06:58;;;;;;;26.67;10.82;;;6.10;1.00;;;;;;5009226;28;20409;-51
2022/03/28 05:09:24;;;;;;;21.63;10.50;;;6.10;1.00;;;;;;5008687;28;20422;-50
2022/03/28 05:11:49;;;;;;;24.17;10.57;;;6.10;1.00;;;;;;5009803;28;20464;-50
2022/03/28 05:14:15;;;;;;;21.65;10.77;;;6.10;1.00;;;;;;5008454;28;20400;-50
2022/03/28 05:16:41;;;;;;;26.43;9.93;;;6.00;1.00;;;;;;5010249;28;20380;-50
2022/03/28 05:19:06;;;;;;;23.20;10.73;;;5.90;1.00;;;;;;5008755;28;20412;-50
2022/03/28 05:21:32;;;;;;;24.70;10.00;;;6.00;1.00;;;;;;5010181;28;20898;-50
2022/03/28 05:23:59;;;;;;;27.87;10.93;;;6.00;1.00;;;;;;5010057;28;20392;-50
2022/03/28 05:26:26;;;;;;;20.42;10.40;;;6.00;27.10;;;;;;5009225;28;20396;-51
2022/03/28 05:28:52;;;;;;;25.15;9.98;;;6.00;99.90;;;;;;5010386;28;20401;-50
2022/03/28 05:31:17;;;;;;;22.30;9.85;;;6.10;99.90;;;;;;5008288;28;20419;-50
2022/03/28 05:33:44;;;;;;;21.60;10.23;;;6.20;99.90;;;;;;5009762;28;20436;-50
2022/03/28 05:36:10;;;;;;;19.92;9.10;;;6.40;99.90;;;;;;5008955;28;20795;-50
2022/03/28 05:38:36;;;;;;;22.55;10.50;;;6.40;99.90;;;;;;5009622;28;20511;-48
2022/03/28 05:41:05;;;;;;;20.70;10.00;;;6.60;99.90;;;;;;5006915;28;20505;-50
2022/03/28 05:43:32;;;;;;;22.20;8.80;;;6.90;42.30;;;;;;5009828;28;20396;-53
2022/03/28 05:45:58;;;;;;;23.63;9.40;;;7.10;97.00;;;;;;5010191;28;20455;-51
2022/03/28 05:48:23;;;;;;;22.13;9.90;;;7.20;97.30;;;;;;5009394;28;21012;-50
2022/03/28 05:50:49;;;;;;;20.55;9.75;;;7.50;96.80;;;;;;5009557;28;20401;-53
2022/03/28 05:53:15;;;;;;;19.70;9.50;;;7.90;95.80;;;;;;5009293;28;20908;-53
2022/03/28 05:55:43;;;;;;;21.05;9.98;;;8.20;94.30;;;;;;5000936;28;20465;-53
2022/03/28 05:58:10;;;;;;;23.83;10.82;;;8.60;93.30;;;;;;4989548;28;20443;-52
2022/03/28 06:00:37;;;;;;;23.92;10.52;;;8.90;92.10;;;;;;4990310;28;20382;-53
2022/03/28 06:03:08;;;;;;;22.33;9.90;;;9.40;91.10;;;;;;4990213;28;20411;-53
2022/03/28 06:05:36;;;;;;;20.27;9.88;;;10.10;88.60;;;;;;5008914;28;20412;-53
2022/03/28 06:08:02;;;;;;;19.98;10.43;;;10.60;82.50;;;;;;4996565;28;20411;-51
2022/03/28 06:10:28;;;;;;;20.95;10.52;;;11.00;79.50;;;;;;5012976;28;20472;-53
2022/03/28 06:12:53;;;;;;;26.75;10.85;;;11.50;77.30;;;;;;4995828;28;20483;-51
2022/03/28 06:15:19;;;;;;;23.63;10.30;;;11.90;73.60;;;;;;5012780;28;20443;-51
2022/03/28 06:17:45;;;;;;;25.80;10.80;;;11.90;72.30;;;;;;5013424;28;20550;-51
2022/03/28 06:20:11;;;;;;;20.65;11.00;;;12.00;70.70;;;;;;5012561;28;20471;-50
2022/03/28 06:22:37;;;;;;;20.80;10.23;;;12.30;69.30;;;;;;5013432;28;20482;-50
2022/03/28 06:25:04;;;;;;;21.33;10.07;;;12.40;68.70;;;;;;5012989;28;20842;-51
2022/03/28 06:27:30;;;;;;;19.75;11.07;;;12.70;67.60;;;;;;5003943;28;20495;-51
2022/03/28 06:29:57;;;;;;;21.02;10.90;;;13.10;66.10;;;;;;4996231;28;20422;-51
2022/03/28 06:32:23;;;;;;;21.65;11.70;;;13.50;63.00;;;;;;4993046;28;20414;-51
2022/03/28 06:34:52;;;;;;;27.17;11.87;;;14.00;99.90;;;;;;4993565;28;20379;-53
2022/03/28 06:37:21;;;;;;;21.58;11.55;;;14.90;99.90;;;;;;4992826;28;20421;-53
2022/03/28 06:39:47;;;;;;;23.10;13.20;;;15.30;99.90;;;;;;5001326;28;20448;-52
2022/03/28 06:42:13;;;;;;;26.98;13.30;;;15.70;99.90;;;;;;5012120;28;20458;-51
2022/03/28 06:44:39;;;;;;;23.20;12.57;;;16.80;99.90;;;;;;5013321;28;20384;-51
2022/03/28 06:47:05;;;;;;;23.23;12.25;;;17.40;99.90;;;;;;5012825;28;20399;-52
2022/03/28 06:49:32;;;;;;;21.33;12.03;;;17.20;99.90;;;;;;5012844;28;20393;-52
2022/03/28 06:51:58;;;;;;;20.05;12.10;;;17.10;99.90;;;;;;5012853;28;20400;-51
2022/03/28 06:54:23;;;;;;;22.63;12.90;;;17.70;99.90;;;;;;5011971;28;20397;-51
2022/03/28 06:56:49;;;;;;;24.67;12.43;;;17.80;99.90;;;;;;5012575;28;20427;-52
2022/03/28 06:59:15;;;;;;;20.98;15.00;;;18.20;1.00;;;;;;5012497;28;20928;-51
2022/03/28 07:01:41;;;;;;;21.15;15.25;;;18.80;99.90;;;;;;5012649;28;20924;-51
2022/03/28 07:04:10;;;;;;;24.23;15.48;;;19.50;99.90;;;;;;5012341;28;20384;-53
2022/03/28 07:06:39;;;;;;;21.55;14.90;;;20.00;99.90;;;;;;4995002;28;20759;-54
2022/03/28 07:09:05;;;;;;;24.35;13.57;;;20.40;99.90;;;;;;5012623;28;20373;-54
2022/03/28 07:11:32;;;;;;;22.63;12.90;;;20.60;99.90;;;;;;4994302;28;20468;-54
2022/03/28 07:13:58;;;;;;;20.42;11.80;;;20.60;99.90;;;;;;5012571;28;20389;-54
2022/03/28 07:16:24;;;;;;;27.10;13.13;;;20.30;99.90;;;;;;5010674;28;20715;-54
2022/03/28 07:18:50;;;;;;;22.03;12.37;;;20.30;99.90;;;;;;5012427;28;20894;-54
2022/03/28 07:21:16;;;;;;;26.10;14.10;;;20.70;99.90;;;;;;5011169;28;20463;-51
2022/03/28 07:23:42;;;;;;;21.37;13.20;;;20.90;99.90;;;;;;5012510;28;20870;-53
2022/03/28 07:26:08;;;;;;;22.73;14.15;;;21.30;99.90;;;;;;5011628;28;20419;-53
2022/03/28 07:28:38;;;;;;;23.75;14.40;;;21.30;99.90;;;;;;5012772;28;20385;-53
2022/03/28 07:31:10;;;;;;;24.88;14.20;;;21.40;99.90;;;;;;5012210;28;20423;-52
2022/03/28 07:33:38;;;;;;;25.00;13.80;;;22.50;99.90;;;;;;5012353;28;20381;-52
2022/03/28 07:36:06;;;;;;;25.10;14.80;;;23.10;99.90;;;;;;5012035;28;20859;-52
2022/03/28 07:38:32;;;;;;;27.57;14.27;;;22.90;99.90;;;;;;5011336;28;20455;-53
2022/03/28 07:40:58;;;;;;;27.55;13.63;;;21.80;99.90;;;;;;5012004;28;20384;-54
2022/03/28 07:43:24;;;;;;;24.42;13.00;;;22.10;99.90;;;;;;5011445;28;20396;-52
2022/03/28 07:45:52;;;;;;;28.10;14.50;;;23.00;99.90;;;;;;5011958;28;20404;-52
2022/03/28 07:48:18;;;;;;;28.48;15.50;;;24.10;99.90;;;;;;5010865;28;20747;-54
2022/03/28 07:50:45;;;;;;;26.05;16.92;;;24.80;99.90;;;;;;5012212;28;20405;-52
2022/03/28 07:53:12;;;;;;;28.67;18.23;;;24.80;99.90;;;;;;5010678;28;20882;-54
2022/03/28 07:55:39;;;;;;;24.30;14.38;;;25.70;99.90;;;;;;5011723;28;20377;-54
2022/03/28 07:58:06;;;;;;;24.35;14.52;;;25.00;99.90;;;;;;5011739;28;20431;-52
2022/03/28 08:00:32;;;;;;;29.85;15.20;;;24.10;99.90;;;;;;5011244;28;20389;-53
2022/03/28 08:02:59;;;;;;;24.65;13.82;;;24.60;99.90;;;;;;4994037;28;20396;-54
2022/03/28 08:05:26;;;;;;;29.17;18.08;;;25.60;99.90;;;;;;5010658;28;20380;-55
2022/03/28 08:07:53;;;;;;;25.95;18.42;;;25.20;99.90;;;;;;5010757;28;20410;-52
2022/03/28 08:10:20;;;;;;;27.00;19.65;;;24.60;99.90;;;;;;5010663;28;20435;-52
2022/03/28 08:12:46;;;;;;;24.75;17.38;;;24.30;99.90;;;;;;5011509;28;20373;-52
2022/03/28 08:15:13;;;;;;;27.08;18.88;;;25.10;99.90;;;;;;5010606;28;20897;-54
2022/03/28 08:17:40;;;;;;;28.48;18.25;;;26.10;99.90;;;;;;5011695;28;20889;-54
2022/03/28 08:20:09;;;;;;;25.80;16.43;;;26.50;99.90;;;;;;5010606;28;20483;-54
2022/03/28 08:22:49;;;;;;;26.25;20.15;;;27.30;99.90;;;;;;5002867;28;20536;-54
2022/03/28 08:25:16;;;;;;;29.42;19.45;;;27.10;99.90;;;;;;4990474;28;20418;-54
2022/03/28 08:27:42;;;;;;;28.23;20.40;;;27.30;99.90;;;;;;4991136;28;20453;-55
2022/03/28 08:30:08;;;;;;;26.63;18.60;;;26.70;99.90;;;;;;4991336;28;20383;-54
2022/03/28 08:32:34;;;;;;;26.92;18.55;;;26.60;99.90;;;;;;4990861;28;20477;-54
2022/03/28 08:35:00;;;;;;;24.52;18.80;;;27.20;99.90;;;;;;4991386;28;20719;-55
2022/03/28 08:37:27;;;;;;;27.73;18.70;;;26.90;99.90;;;;;;4990602;28;20421;-55
2022/03/28 08:39:55;;;;;;;25.27;17.40;;;26.50;99.90;;;;;;4991296;28;20443;-55
2022/03/28 08:42:25;;;;;;;24.58;16.92;;;27.30;99.90;;;;;;4990637;28;20387;-55
2022/03/28 08:44:51;;;;;;;27.77;19.92;;;27.60;99.90;;;;;;4991521;28;20370;-55
2022/03/28 08:47:22;;;;;;;26.70;18.10;;;27.50;99.90;;;;;;4990184;28;20399;-55
2022/03/28 08:49:49;;;;;;;29.55;19.55;;;27.30;99.90;;;;;;4991017;28;20489;-54
2022/03/28 08:52:16;;;;;;;27.00;19.30;;;26.60;99.90;;;;;;5001819;28;20537;-55
2022/03/28 08:54:43;;;;;;;25.85;19.60;;;27.40;99.90;;;;;;5006552;28;20381;-55
2022/03/28 08:57:08;;;;;;;25.30;18.23;;;27.80;99.90;;;;;;4999321;28;20433;-55
2022/03/28 08:59:34;;;;;;;28.53;18.23;;;27.70;99.90;;;;;;4991135;28;20514;-54
2022/03/28 09:02:01;;;;;;;29.37;18.80;;;27.80;99.90;;;;;;5005722;28;20377;-53
2022/03/28 09:04:27;;;;;;;23.40;18.42;;;28.90;99.90;;;;;;5009835;28;20564;-53
2022/03/28 09:06:52;;;;;;;26.43;18.57;;;29.20;99.90;;;;;;5010534;28;21071;-53
2022/03/28 09:09:20;;;;;;;23.83;18.60;;;29.80;99.90;;;;;;4997484;28;20860;-53
2022/03/28 09:11:52;;;;;;;22.08;14.02;;;28.50;99.90;;;;;;4990762;28;20387;-55
2022/03/28 09:14:31;;;;;;;22.08;15.50;;;28.60;99.90;;;;;;5001655;28;20385;-53
2022/03/28 09:17:19;;;;;;;23.08;13.65;;;29.40;99.90;;;;;;4994070;28;20408;-53
2022/03/28 09:19:53;;;;;;;27.27;14.10;;;29.00;99.90;;;;;;5010002;28;20405;-53
2022/03/28 09:22:28;;;;;;;25.97;20.30;;;29.50;99.90;;;;;;5009600;28;20409;-53
2022/03/28 09:24:58;;;;;;;23.25;15.85;;;31.10;99.90;;;;;;5010065;28;20438;-53
2022/03/28 09:27:29;;;;;;;26.42;18.83;;;31.00;99.90;;;;;;5009349;28;20380;-53
2022/03/28 09:30:19;;;;;;;23.90;13.35;;;30.50;99.90;;;;;;5010090;28;20385;-53
2022/03/28 09:32:52;;;;;;;26.40;15.07;;;31.20;99.90;;;;;;5010149;28;20870;-54
2022/03/28 09:35:23;;;;;;;22.50;14.45;;;31.40;99.90;;;;;;4988458;28;20426;-53
2022/03/28 09:38:03;;;;;;;23.33;14.20;;;30.40;99.90;;;;;;4990038;28;20457;-53
2022/03/28 09:40:40;;;;;;;23.98;13.52;;;29.10;99.90;;;;;;5005992;28;20717;-53
2022/03/28 09:43:24;;;;;;;23.92;13.93;;;28.70;99.90;;;;;;4989440;28;20395;-53
2022/03/28 09:45:53;;;;;;;25.13;15.07;;;29.00;99.90;;;;;;4990213;28;20441;-54
2022/03/28 09:48:20;;;;;;;21.95;12.98;;;29.40;99.90;;;;;;5003558;28;20404;-53
2022/03/28 09:50:48;;;;;;;25.57;13.87;;;29.60;99.90;;;;;;5004417;28;20832;-53
2022/03/28 09:53:21;;;;;;;22.50;14.17;;;30.20;99.90;;;;;;4996236;28;20417;-53
2022/03/28 09:55:56;;;;;;;23.77;14.18;;;30.60;99.90;;;;;;5004045;28;20494;-53
2022/03/28 09:58:38;;;;;;;23.40;13.73;;;30.10;99.90;;;;;;5000798;28;20418;-53
2022/03/28 10:01:27;;;;;;;22.90;14.50;;;29.30;99.90;;;;;;5001330;28;20744;-54
2022/03/28 10:04:00;;;;;;;23.23;12.73;;;30.10;99.90;;;;;;4992933;28;20381;-54
2022/03/28 10:06:27;;;;;;;20.37;12.70;;;30.30;99.90;;;;;;5008906;28;20380;-53
2022/03/28 10:08:52;;;;;;;24.33;13.93;;;30.60;99.90;;;;;;5009558;28;20424;-53
2022/03/28 10:11:19;;;;;;;23.13;14.20;;;30.80;99.90;;;;;;4990816;28;20381;-53
2022/03/28 10:13:46;;;;;;;23.33;13.82;;;31.10;99.90;;;;;;5008087;28;20424;-54
2022/03/28 10:16:12;;;;;;;29.42;16.02;;;32.20;99.90;;;;;;5008768;28;20560;-53
2022/03/28 10:18:40;;;;;;;22.20;14.63;;;31.20;99.90;;;;;;5008545;28;20758;-53
2022/03/28 10:21:19;;;;;;;23.13;14.07;;;31.30;99.90;;;;;;4995031;28;20456;-53
2022/03/28 10:23:48;;;;;;;25.88;14.52;;;30.90;99.90;;;;;;4990030;28;20922;-53
2022/03/28 10:26:15;;;;;;;23.77;18.30;;;32.00;99.90;;;;;;4996077;28;20412;-53
2022/03/28 10:28:41;;;;;;;25.98;18.50;;;29.90;99.90;;;;;;5004050;28;20409;-55
2022/03/28 10:31:16;;;;;;;30.30;19.50;;;28.70;99.90;;;;;;4989425;28;20888;-55
2022/03/28 10:33:47;;;;;;;25.20;20.17;;;27.40;99.90;;;;;;5008389;28;20428;-55
2022/03/28 10:36:28;;;;;;;25.75;18.85;;;27.10;99.90;;;;;;5006315;28;20409;-55
2022/03/28 10:38:57;;;;;;;27.17;19.58;;;27.40;99.90;;;;;;5007229;28;20494;-56
2022/03/28 10:41:26;;;;;;;22.93;18.10;;;27.90;99.90;;;;;;5008142;28;20469;-56
2022/03/28 10:44:01;;;;;;;27.90;19.80;;;28.80;99.90;;;;;;5008791;28;20397;-53
2022/03/28 10:46:34;;;;;;;27.48;18.80;;;29.50;99.90;;;;;;5005676;28;20400;-54
2022/03/28 10:49:01;;;;;;;32.63;19.58;;;29.40;99.90;;;;;;5001074;28;20411;-54
2022/03/28 10:51:30;;;;;;;27.90;18.40;;;29.40;99.90;;;;;;5007503;28;20886;-54
2022/03/28 10:53:58;;;;;;;26.48;19.30;;;29.50;99.90;;;;;;5010014;28;20411;-54
2022/03/28 10:56:31;;;;;;;28.13;19.60;;;29.90;99.90;;;;;;5011201;28;20401;-54
2022/03/28 10:58:59;;;;;;;26.85;19.67;;;29.10;99.90;;;;;;5011915;28;20416;-54
2022/03/28 11:01:36;;;;;;;31.25;19.33;;;29.00;99.90;;;;;;5008089;28;20877;-54
2022/03/28 11:04:23;;;;;;;29.10;20.15;;;29.00;99.90;;;;;;5011258;28;20443;-54
2022/03/28 11:07:03;;;;;;;25.92;17.52;;;29.20;99.90;;;;;;5009236;28;20404;-54
2022/03/28 11:10:00;;;;;;;31.57;20.10;;;29.20;99.90;;;;;;5011250;28;20385;-54
2022/03/28 11:12:35;;;;;;;28.30;20.30;;;28.80;99.90;;;;;;5000934;28;20396;-54
2022/03/28 11:15:19;;;;;;;29.00;19.80;;;29.10;99.90;;;;;;5011594;28;20396;-54
2022/03/28 11:17:55;;;;;;;28.75;19.90;;;28.90;99.90;;;;;;5008996;28;20908;-55
2022/03/28 11:20:23;;;;;;;32.25;20.58;;;29.40;99.90;;;;;;5009424;28;20403;-54
2022/03/28 11:23:21;;;;;;;29.45;19.67;;;29.20;99.90;;;;;;5010554;28;20431;-54
2022/03/28 11:25:51;;;;;;;30.70;20.77;;;29.00;99.90;;;;;;4972641;28;20518;-54
2022/03/28 11:28:27;;;;;;;26.30;19.75;;;28.30;99.90;;;;;;5010421;28;20389;-54
2022/03/28 11:31:08;;;;;;;31.70;19.23;;;27.50;99.90;;;;;;5010929;28;20409;-55
2022/03/28 11:33:38;;;;;;;30.50;19.63;;;27.20;99.90;;;;;;5009985;28;20404;-54
2022/03/28 11:36:06;;;;;;;30.15;19.83;;;26.60;99.90;;;;;;5007340;28;20467;-55
2022/03/28 11:38:44;;;;;;;29.45;19.90;;;26.10;99.90;;;;;;5010073;28;20495;-54
2022/03/28 11:41:12;;;;;;;26.95;19.33;;;25.30;99.90;;;;;;5010241;28;20468;-54
2022/03/28 11:43:54;;;;;;;25.35;19.20;;;25.00;99.90;;;;;;5010741;28;20513;-55
2022/03/28 11:46:26;;;;;;;26.38;19.77;;;25.00;99.90;;;;;;5004734;28;20500;-54
2022/03/28 11:49:01;;;;;;;28.85;19.13;;;24.80;99.90;;;;;;5007753;28;20405;-54
2022/03/28 11:51:29;;;;;;;28.55;18.67;;;24.80;99.90;;;;;;5003703;28;20422;-54
2022/03/28 11:54:16;;;;;;;28.15;19.10;;;24.50;99.90;;;;;;5005087;28;20391;-55
2022/03/28 11:59:29;;;;;;;27.13;17.77;;;24.90;99.90;;;;;;5002673;28;20443;-54
2022/03/28 12:01:56;;;;;;;24.83;18.08;;;25.10;99.90;;;;;;5004839;28;20408;-54
2022/03/28 12:04:23;;;;;;;28.15;18.38;;;25.00;99.90;;;;;;5008845;28;20476;-54
2022/03/28 12:06:51;;;;;;;24.60;16.40;;;25.00;99.90;;;;;;5010057;28;20385;-54
2022/03/28 12:09:17;;;;;;;24.20;16.63;;;24.60;99.90;;;;;;5008922;28;20393;-54
2022/03/28 12:11:54;;;;;;;27.75;17.20;;;24.70;99.90;;;;;;5006579;28;20488;-54
2022/03/28 12:14:22;;;;;;;23.73;16.77;;;24.80;99.90;;;;;;5002052;28;20470;-54
2022/03/28 12:16:54;;;;;;;25.15;16.80;;;24.90;99.90;;;;;;5005569;28;20400;-54
2022/03/28 12:19:23;;;;;;;24.65;16.85;;;24.50;99.90;;;;;;5006914;28;20910;-54
2022/03/28 12:21:50;;;;;;;23.25;15.90;;;24.30;99.90;;;;;;5007838;28;20451;-55
2022/03/28 12:24:16;;;;;;;25.25;16.73;;;24.30;99.90;;;;;;5009857;28;20389;-54
2022/03/28 12:26:46;;;;;;;27.97;17.93;;;24.50;99.90;;;;;;5003569;28;20485;-55
2022/03/28 12:29:12;;;;;;;27.15;18.48;;;24.80;99.90;;;;;;5003248;28;20439;-55
2022/03/28 12:31:41;;;;;;;24.40;16.83;;;24.40;99.90;;;;;;5006563;28;20893;-54
2022/03/28 12:34:08;;;;;;;24.73;17.30;;;25.20;99.90;;;;;;5005834;28;20401;-55
2022/03/28 12:36:35;;;;;;;22.60;15.32;;;24.30;99.90;;;;;;5008189;28;20525;-54
2022/03/28 12:39:06;;;;;;;24.23;15.98;;;23.90;99.90;;;;;;5008185;28;20431;-54
2022/03/28 12:41:44;;;;;;;27.00;15.70;;;23.80;99.90;;;;;;5007854;28;20401;-54
2022/03/28 12:44:17;;;;;;;23.42;16.25;;;24.20;99.90;;;;;;5006222;28;20762;-55
2022/03/28 12:46:47;;;;;;;20.65;15.15;;;24.40;99.90;;;;;;5009450;28;20496;-54